Time;durP1;ratioP1;P1;durP2;ratioP2;P2;SDS_P1;SDS_P2;PMS_P1;PMS_P2;Temp;Humidity;BMP_temperature;BMP_pressure;BME280_temperature;BME280_humidity;BME280_pressure;Samples;Min_cycle;Max_cycle;Signal;HPM_P1;HPM_P2
2023/06/09 00:02:00;;;;;;;3.47;1.05;;;22.30;59.50;;;;;;7402996;19;19948;-62
2023/06/09 00:04:33;;;;;;;3.70;1.08;;;22.30;59.60;;;;;;7400077;19;19922;-63
2023/06/09 00:07:07;;;;;;;2.92;0.85;;;22.30;59.60;;;;;;7386941;19;19926;-61
2023/06/09 00:09:37;;;;;;;4.13;0.98;;;22.30;59.60;;;;;;7401992;19;19930;-62
2023/06/09 00:12:08;;;;;;;3.40;1.15;;;22.30;59.60;;;;;;7401997;19;19923;-62
2023/06/09 00:14:38;;;;;;;3.85;1.20;;;22.30;59.80;;;;;;7401125;19;19929;-61
2023/06/09 00:17:13;;;;;;;3.25;0.93;;;22.20;59.70;;;;;;7399420;19;19962;-61
2023/06/09 00:19:46;;;;;;;2.45;1.00;;;22.20;59.70;;;;;;7404529;19;19930;-62
2023/06/09 00:22:19;;;;;;;3.88;1.15;;;22.20;59.80;;;;;;7399930;19;19982;-62
2023/06/09 00:24:49;;;;;;;3.33;1.13;;;22.20;59.80;;;;;;7401999;19;19947;-63
2023/06/09 00:27:19;;;;;;;2.70;1.25;;;22.20;59.90;;;;;;7402007;19;19983;-62
2023/06/09 00:29:50;;;;;;;3.20;0.90;;;22.20;59.90;;;;;;7400845;19;20014;-63
2023/06/09 00:32:20;;;;;;;3.92;1.20;;;22.10;59.90;;;;;;7402733;19;19997;-63
2023/06/09 00:34:49;;;;;;;3.45;1.17;;;22.10;60.00;;;;;;7403631;19;19926;-62
2023/06/09 00:37:22;;;;;;;4.63;1.60;;;22.10;60.00;;;;;;7398953;19;19929;-63
2023/06/09 00:39:52;;;;;;;2.75;0.63;;;22.10;60.10;;;;;;7400785;19;19926;-62
2023/06/09 00:42:22;;;;;;;3.38;0.93;;;22.10;60.10;;;;;;7401743;19;19978;-62
2023/06/09 00:44:53;;;;;;;3.95;1.23;;;22.10;60.10;;;;;;7400300;19;19930;-61
2023/06/09 00:47:24;;;;;;;3.47;0.88;;;22.10;60.10;;;;;;7397013;19;19925;-61
2023/06/09 00:49:55;;;;;;;4.30;1.30;;;22.00;60.10;;;;;;7397118;19;19918;-62
2023/06/09 00:52:36;;;;;;;4.43;1.33;;;22.10;60.20;;;;;;7400226;19;19925;-63
2023/06/09 00:55:07;;;;;;;3.55;1.55;;;22.10;60.30;;;;;;7399366;19;19927;-63
2023/06/09 00:57:39;;;;;;;3.70;1.02;;;22.00;60.30;;;;;;7400586;19;19965;-62
2023/06/09 01:00:16;;;;;;;2.33;0.90;;;22.00;60.20;;;;;;7399719;19;19922;-62
2023/06/09 01:02:47;;;;;;;3.97;1.42;;;22.00;60.20;;;;;;7399400;19;19939;-62
2023/06/09 01:05:18;;;;;;;3.95;1.30;;;22.00;60.30;;;;;;7402171;19;19914;-62
2023/06/09 01:08:05;;;;;;;3.53;1.20;;;22.00;60.20;;;;;;7400959;19;20264;-62
2023/06/09 01:10:42;;;;;;;;;;;22.00;60.40;;;;;;7404050;19;20641;-62
2023/06/09 01:13:24;;;;;;;3.45;1.08;;;22.00;60.40;;;;;;7398657;19;19948;-62
2023/06/09 01:16:00;;;;;;;3.97;0.98;;;22.00;60.40;;;;;;7400468;19;20344;-63
2023/06/09 01:18:35;;;;;;;3.53;1.23;;;21.90;60.40;;;;;;7398806;19;19958;-62
2023/06/09 01:21:17;;;;;;;3.53;1.17;;;21.90;60.40;;;;;;7400064;19;19918;-62
2023/06/09 01:24:04;;;;;;;3.30;0.70;;;21.90;60.60;;;;;;7400552;19;20315;-62
2023/06/09 01:26:41;;;;;;;1.85;0.70;;;22.00;60.50;;;;;;7401921;19;19922;-62
2023/06/09 01:29:13;;;;;;;5.72;1.35;;;21.90;60.50;;;;;;7403703;19;19919;-62
2023/06/09 01:31:44;;;;;;;2.58;0.82;;;21.90;60.60;;;;;;7407052;19;19948;-61
2023/06/09 01:34:15;;;;;;;2.70;1.05;;;21.90;60.60;;;;;;7410663;19;19943;-61
2023/06/09 01:36:45;;;;;;;2.58;1.02;;;21.80;60.60;;;;;;7409466;19;19931;-62
2023/06/09 01:39:15;;;;;;;3.75;1.15;;;21.90;60.60;;;;;;7408869;19;19929;-62
2023/06/09 01:41:48;;;;;;;3.63;1.20;;;21.80;60.60;;;;;;7408277;19;20290;-62
2023/06/09 01:44:18;;;;;;;3.00;0.85;;;21.80;60.60;;;;;;7406394;19;20330;-62
2023/06/09 01:46:47;;;;;;;;;;;21.80;60.60;;;;;;7410301;19;19939;-62
2023/06/09 01:49:24;;;;;;;2.85;1.08;;;21.80;60.70;;;;;;7408902;19;19938;-62
2023/06/09 01:51:55;;;;;;;4.13;0.88;;;21.80;60.80;;;;;;7407015;19;20021;-62
2023/06/09 01:54:32;;;;;;;3.65;1.08;;;21.80;60.80;;;;;;7404602;19;19926;-62
2023/06/09 01:57:19;;;;;;;2.78;0.85;;;21.80;60.80;;;;;;7403046;19;20284;-61
2023/06/09 01:59:56;;;;;;;3.10;1.15;;;21.80;61.00;;;;;;7399895;19;19982;-62
2023/06/09 02:02:30;;;;;;;3.10;0.90;;;21.70;60.80;;;;;;7404410;19;19918;-62
2023/06/09 02:07:41;;;;;;;2.28;0.73;;;21.70;60.90;;;;;;7405440;19;20298;-69
2023/06/09 02:10:15;;;;;;;2.75;0.70;;;21.70;60.90;;;;;;7409486;19;19922;-69
2023/06/09 02:12:47;;;;;;;3.65;1.02;;;21.70;60.90;;;;;;7407719;19;19926;-69
2023/06/09 02:15:15;;;;;;;3.30;0.80;;;21.70;61.00;;;;;;7405015;19;19923;-69
2023/06/09 02:17:44;;;;;;;3.80;1.20;;;21.70;61.10;;;;;;7407524;19;19929;-69
2023/06/09 02:20:14;;;;;;;2.80;1.25;;;21.70;61.10;;;;;;7404302;19;19926;-72
2023/06/09 02:22:43;;;;;;;3.13;0.98;;;21.70;61.10;;;;;;7403913;19;20348;-69
2023/06/09 02:25:12;;;;;;;2.75;0.75;;;21.60;61.10;;;;;;7402591;19;19994;-69
2023/06/09 02:27:41;;;;;;;4.05;1.02;;;21.70;61.10;;;;;;7406079;19;20351;-69
2023/06/09 02:30:13;;;;;;;2.42;0.88;;;21.60;61.10;;;;;;7402358;19;19926;-70
2023/06/09 02:32:45;;;;;;;2.63;1.42;;;21.60;61.10;;;;;;7405470;19;19918;-70
2023/06/09 02:35:14;;;;;;;2.63;0.85;;;21.60;61.10;;;;;;7403538;19;19923;-70
2023/06/09 02:37:44;;;;;;;3.70;1.00;;;21.60;61.20;;;;;;7404601;19;19986;-70
2023/06/09 02:40:14;;;;;;;4.40;1.25;;;21.60;61.20;;;;;;7403707;19;19919;-70
2023/06/09 02:42:43;;;;;;;2.67;0.90;;;21.60;61.20;;;;;;7405463;19;19978;-70
2023/06/09 02:45:16;;;;;;;2.72;0.85;;;21.60;61.20;;;;;;7404887;19;19974;-70
2023/06/09 02:47:45;;;;;;;4.40;1.20;;;21.60;61.20;;;;;;7404292;19;20182;-71
2023/06/09 02:50:15;;;;;;;3.50;1.02;;;21.60;61.20;;;;;;7401004;19;19911;-70
2023/06/09 02:52:48;;;;;;;2.17;0.73;;;21.60;61.30;;;;;;7402482;19;19943;-72
2023/06/09 02:55:20;;;;;;;2.72;1.05;;;21.60;61.30;;;;;;7403111;19;20364;-71
2023/06/09 02:57:49;;;;;;;3.03;1.15;;;21.50;61.30;;;;;;7402313;19;19925;-70
2023/06/09 03:00:22;;;;;;;3.13;0.98;;;21.60;61.30;;;;;;7401798;19;20337;-70
2023/06/09 03:02:51;;;;;;;3.00;0.90;;;21.50;61.30;;;;;;7404553;19;19985;-70
2023/06/09 03:05:21;;;;;;;2.72;1.05;;;21.50;61.40;;;;;;7405710;19;19914;-70
2023/06/09 03:07:59;;;;;;;2.53;0.57;;;21.50;61.30;;;;;;7405352;19;19925;-70
2023/06/09 03:10:29;;;;;;;3.97;1.20;;;21.50;61.40;;;;;;7409239;19;19925;-70
2023/06/09 03:13:11;;;;;;;;;;;;;;;;;;;;;
2023/06/09 03:15:45;;;;;;;3.65;0.90;;;21.50;61.40;;;;;;7405290;19;19923;-70
2023/06/09 03:18:20;;;;;;;3.15;0.70;;;21.50;61.40;;;;;;7406235;19;20356;-71
2023/06/09 03:20:51;;;;;;;3.20;0.90;;;21.50;61.50;;;;;;7409016;19;19918;-71
2023/06/09 03:23:23;;;;;;;2.78;1.27;;;21.50;61.50;;;;;;7408193;19;20344;-71
2023/06/09 03:25:52;;;;;;;3.17;0.80;;;21.50;61.50;;;;;;7408529;19;19986;-70
2023/06/09 03:28:21;;;;;;;1.73;0.63;;;21.40;61.40;;;;;;7405206;19;19982;-70
2023/06/09 03:30:53;;;;;;;2.10;0.88;;;21.50;61.50;;;;;;7403886;19;20396;-70
2023/06/09 03:33:24;;;;;;;2.92;1.25;;;21.50;61.50;;;;;;7402454;19;19940;-70
2023/06/09 03:35:53;;;;;;;2.83;0.80;;;21.50;61.50;;;;;;7401638;19;19933;-70
2023/06/09 03:38:23;;;;;;;2.63;0.80;;;21.50;61.50;;;;;;7403857;19;19930;-70
2023/06/09 03:40:51;;;;;;;;;;;21.40;61.60;;;;;;7406506;19;20317;-70
2023/06/09 03:43:20;;;;;;;3.15;0.98;;;21.40;61.50;;;;;;7405040;19;19928;-70
2023/06/09 03:45:49;;;;;;;3.72;1.25;;;21.50;61.60;;;;;;7404197;19;19978;-70
2023/06/09 03:48:21;;;;;;;2.28;0.80;;;21.40;61.60;;;;;;7403587;19;19926;-70
2023/06/09 03:50:50;;;;;;;2.53;0.90;;;21.40;61.50;;;;;;7401120;19;19922;-70
2023/06/09 03:53:20;;;;;;;2.28;0.82;;;21.40;61.60;;;;;;7404411;19;19938;-70
2023/06/09 03:55:49;;;;;;;2.08;0.70;;;21.40;62.20;;;;;;7402993;19;19990;-70
2023/06/09 03:58:18;;;;;;;2.20;0.70;;;21.40;61.60;;;;;;7404741;19;19919;-70
2023/06/09 04:00:47;;;;;;;3.42;0.85;;;21.40;61.70;;;;;;7404747;19;19919;-70
2023/06/09 04:03:24;;;;;;;3.72;1.20;;;21.40;61.70;;;;;;7398863;19;19918;-70
2023/06/09 04:05:53;;;;;;;3.83;0.82;;;21.40;61.70;;;;;;7398587;19;19933;-70
2023/06/09 04:08:26;;;;;;;3.25;0.95;;;21.40;61.60;;;;;;7400173;19;19914;-70
2023/06/09 04:11:02;;;;;;;1.98;0.73;;;21.40;61.70;;;;;;7402496;19;19926;-70
2023/06/09 04:13:31;;;;;;;2.42;0.93;;;21.40;61.70;;;;;;7403792;19;19951;-69
2023/06/09 04:16:01;;;;;;;3.97;1.42;;;21.40;61.70;;;;;;7404415;19;19944;-69
2023/06/09 04:18:32;;;;;;;2.65;0.80;;;21.40;61.70;;;;;;7404498;19;20319;-71
2023/06/09 04:21:01;;;;;;;3.35;1.00;;;21.40;61.70;;;;;;7403919;19;19986;-70
2023/06/09 04:23:32;;;;;;;2.58;0.73;;;21.40;61.70;;;;;;7403401;19;19957;-69
2023/06/09 04:26:02;;;;;;;2.42;0.80;;;21.40;61.70;;;;;;7404129;19;19941;-70
2023/06/09 04:28:30;;;;;;;;;;;21.40;61.70;;;;;;7402959;19;19926;-69
2023/06/09 04:31:06;;;;;;;3.17;1.02;;;21.40;61.70;;;;;;7401854;19;19918;-70
2023/06/09 04:33:40;;;;;;;2.95;0.80;;;21.40;61.70;;;;;;7401425;19;19932;-70
2023/06/09 04:36:10;;;;;;;2.22;0.77;;;21.40;61.80;;;;;;7402626;19;19926;-69
2023/06/09 04:38:40;;;;;;;2.67;1.02;;;21.40;61.70;;;;;;7400190;19;19922;-70
2023/06/09 04:41:09;;;;;;;2.35;0.93;;;21.40;61.80;;;;;;7403245;19;19925;-70
2023/06/09 04:43:39;;;;;;;2.75;0.90;;;21.40;61.70;;;;;;7401357;19;19923;-70
2023/06/09 04:46:08;;;;;;;2.65;0.80;;;21.40;61.70;;;;;;7400031;19;20282;-70
2023/06/09 04:48:41;;;;;;;2.83;1.20;;;21.40;61.80;;;;;;7400831;19;19922;-70
2023/06/09 04:51:10;;;;;;;4.50;0.90;;;21.40;61.80;;;;;;7400550;19;19943;-70
2023/06/09 04:53:40;;;;;;;2.45;0.60;;;21.40;61.80;;;;;;7401908;19;19926;-70
2023/06/09 04:56:08;;;;;;;3.20;1.10;;;21.50;61.80;;;;;;7402591;19;19998;-70
2023/06/09 04:58:38;;;;;;;3.28;0.90;;;21.40;61.80;;;;;;7401824;19;19925;-70
2023/06/09 05:01:06;;;;;;;3.45;0.93;;;21.40;61.80;;;;;;7400779;19;20373;-70
2023/06/09 05:03:36;;;;;;;3.63;1.20;;;21.50;61.80;;;;;;7400599;19;19940;-72
2023/06/09 05:06:08;;;;;;;2.10;0.80;;;21.50;61.80;;;;;;7400936;19;19922;-72
2023/06/09 05:08:37;;;;;;;3.42;1.20;;;21.50;61.80;;;;;;7401069;19;19975;-72
2023/06/09 05:11:07;;;;;;;4.00;1.10;;;21.50;61.90;;;;;;7400912;19;19982;-71
2023/06/09 05:13:36;;;;;;;2.72;0.80;;;21.40;61.80;;;;;;7401658;19;20380;-72
2023/06/09 05:16:06;;;;;;;3.83;1.08;;;21.50;61.90;;;;;;7402988;19;19934;-71
2023/06/09 05:18:35;;;;;;;3.50;1.20;;;21.50;61.80;;;;;;7400770;19;19923;-71
2023/06/09 05:21:07;;;;;;;4.22;1.10;;;21.50;61.80;;;;;;7401153;19;19915;-71
2023/06/09 05:23:36;;;;;;;3.53;0.90;;;21.50;61.80;;;;;;7399729;19;19923;-71
2023/06/09 05:26:05;;;;;;;2.67;0.85;;;21.50;61.80;;;;;;7400648;19;19926;-71
2023/06/09 05:28:34;;;;;;;4.65;1.20;;;21.50;61.80;;;;;;7400007;19;21415;-71
2023/06/09 05:31:04;;;;;;;2.25;1.05;;;21.50;61.80;;;;;;7399827;19;19926;-72
2023/06/09 05:33:33;;;;;;;2.78;0.82;;;21.50;61.80;;;;;;7399658;19;20042;-71
2023/06/09 05:36:02;;;;;;;2.78;0.90;;;21.50;61.90;;;;;;7398667;19;19918;-72
2023/06/09 05:38:33;;;;;;;2.40;0.88;;;21.50;61.80;;;;;;7399370;19;19932;-72
2023/06/09 05:41:02;;;;;;;2.70;1.05;;;21.50;61.80;;;;;;7400205;19;19930;-71
2023/06/09 05:43:32;;;;;;;3.53;0.98;;;21.60;61.80;;;;;;7400615;19;19922;-72
2023/06/09 05:46:01;;;;;;;2.25;0.95;;;21.60;61.90;;;;;;7399467;19;19995;-71
2023/06/09 05:48:30;;;;;;;3.03;1.13;;;21.60;61.80;;;;;;7393438;19;20360;-71
2023/06/09 05:51:00;;;;;;;2.80;0.90;;;21.60;61.80;;;;;;7394416;19;19989;-72
2023/06/09 05:53:29;;;;;;;2.75;1.10;;;21.60;61.80;;;;;;7397274;19;19945;-71
2023/06/09 05:56:00;;;;;;;3.15;1.33;;;21.60;61.80;;;;;;7398812;19;19960;-72
2023/06/09 05:58:33;;;;;;;3.42;1.23;;;21.60;62.00;;;;;;7395833;19;20784;-71
2023/06/09 06:01:03;;;;;;;3.92;1.02;;;21.70;62.30;;;;;;7396172;19;19986;-70
2023/06/09 06:03:33;;;;;;;3.28;1.17;;;21.70;62.40;;;;;;7392381;19;19935;-70
2023/06/09 06:06:03;;;;;;;3.38;1.13;;;21.70;62.40;;;;;;7396389;19;19918;-71
2023/06/09 06:08:32;;;;;;;3.80;1.17;;;21.70;62.40;;;;;;7395297;19;19914;-71
2023/06/09 06:11:04;;;;;;;3.13;1.45;;;21.70;62.40;;;;;;7393938;19;19922;-70
2023/06/09 06:13:35;;;;;;;3.83;1.23;;;21.70;62.40;;;;;;7397129;19;19935;-71
2023/06/09 06:16:08;;;;;;;2.78;1.30;;;21.70;62.40;;;;;;7402126;19;19991;-71
2023/06/09 06:18:38;;;;;;;3.03;0.93;;;21.70;62.40;;;;;;7402362;19;19914;-71
2023/06/09 06:21:09;;;;;;;3.65;1.23;;;21.70;62.40;;;;;;7398797;19;19953;-70
2023/06/09 06:23:38;;;;;;;4.10;1.23;;;21.70;62.50;;;;;;7399659;19;19956;-72
2023/06/09 06:26:10;;;;;;;3.47;0.93;;;21.80;62.80;;;;;;7397848;19;19982;-71
2023/06/09 06:28:41;;;;;;;3.03;1.25;;;21.80;62.70;;;;;;7405598;19;19923;-70
2023/06/09 06:31:16;;;;;;;3.80;1.15;;;21.80;62.50;;;;;;7405738;19;19919;-70
2023/06/09 06:33:48;;;;;;;3.75;1.00;;;21.80;62.50;;;;;;7405572;19;19935;-70
2023/06/09 06:36:21;;;;;;;4.40;1.27;;;21.80;62.40;;;;;;7405154;19;19943;-70
2023/06/09 06:38:51;;;;;;;2.70;0.95;;;21.80;63.00;;;;;;7404948;19;19970;-70
2023/06/09 06:41:25;;;;;;;4.10;1.48;;;21.80;62.40;;;;;;7405686;19;19922;-70
2023/06/09 06:43:55;;;;;;;3.45;1.20;;;21.80;62.30;;;;;;7405072;19;19919;-71
2023/06/09 06:46:26;;;;;;;2.42;1.15;;;21.90;62.40;;;;;;7407128;19;19942;-70
2023/06/09 06:48:56;;;;;;;4.57;1.60;;;21.90;62.30;;;;;;7406501;19;20273;-70
2023/06/09 06:51:29;;;;;;;2.58;1.25;;;21.90;62.20;;;;;;7403868;19;20319;-70
2023/06/09 06:54:02;;;;;;;3.85;1.17;;;21.90;62.20;;;;;;7405328;19;19943;-70
2023/06/09 06:56:37;;;;;;;3.50;1.02;;;21.90;62.20;;;;;;7404205;19;19935;-70
2023/06/09 06:59:06;;;;;;;2.17;0.90;;;21.90;62.20;;;;;;7404984;19;19926;-71
2023/06/09 07:01:37;;;;;;;2.50;1.20;;;21.90;62.20;;;;;;7404608;19;19919;-71
2023/06/09 07:04:06;;;;;;;2.95;1.30;;;21.90;62.10;;;;;;7404613;19;19926;-71
2023/06/09 07:06:35;;;;;;;3.03;1.23;;;21.90;62.10;;;;;;7404214;19;20002;-70
2023/06/09 07:09:05;;;;;;;2.55;1.10;;;21.90;62.00;;;;;;7405137;19;20794;-71
2023/06/09 07:11:37;;;;;;;2.83;1.30;;;22.00;62.00;;;;;;7403700;19;19922;-70
2023/06/09 07:14:06;;;;;;;3.40;1.08;;;22.00;62.00;;;;;;7405031;19;20000;-71
2023/06/09 07:16:35;;;;;;;2.63;0.95;;;22.00;62.00;;;;;;7404452;19;19919;-71
2023/06/09 07:19:04;;;;;;;3.30;1.08;;;22.00;62.00;;;;;;7404063;19;19939;-71
2023/06/09 07:21:33;;;;;;;2.45;1.10;;;22.00;62.00;;;;;;7403592;19;19993;-71
2023/06/09 07:24:03;;;;;;;4.10;0.90;;;22.10;62.00;;;;;;7404668;19;20375;-70
2023/06/09 07:26:32;;;;;;;2.05;0.95;;;22.10;62.00;;;;;;7401179;19;19926;-70
2023/06/09 07:29:04;;;;;;;3.17;1.05;;;22.10;62.00;;;;;;7404449;19;19928;-70
2023/06/09 07:31:33;;;;;;;3.67;0.98;;;22.10;61.90;;;;;;7402985;19;19925;-70
2023/06/09 07:34:02;;;;;;;3.80;1.10;;;22.10;61.90;;;;;;7405115;19;19932;-70
2023/06/09 07:36:35;;;;;;;3.22;1.45;;;22.10;61.90;;;;;;7403662;19;20306;-70
2023/06/09 07:39:03;;;;;;;3.30;1.00;;;22.10;61.90;;;;;;7405509;19;19919;-70
2023/06/09 07:41:33;;;;;;;4.30;1.27;;;22.20;61.90;;;;;;7405533;19;19985;-70
2023/06/09 07:44:06;;;;;;;2.47;0.90;;;22.20;61.90;;;;;;7404048;19;19925;-70
2023/06/09 07:46:35;;;;;;;3.38;0.93;;;22.10;61.80;;;;;;7403369;19;20285;-71
2023/06/09 07:49:04;;;;;;;4.00;1.42;;;22.20;61.90;;;;;;7404190;19;20338;-71
2023/06/09 07:51:36;;;;;;;3.13;1.10;;;22.20;61.80;;;;;;7404525;19;19930;-70
2023/06/09 07:54:06;;;;;;;2.25;1.00;;;22.20;61.80;;;;;;7403601;19;19934;-70
2023/06/09 07:56:36;;;;;;;2.10;0.90;;;22.20;61.80;;;;;;7403572;19;19930;-71
2023/06/09 07:59:07;;;;;;;3.35;0.88;;;22.20;61.70;;;;;;7402608;19;19929;-70
2023/06/09 08:01:37;;;;;;;3.63;0.98;;;22.30;61.70;;;;;;7400276;19;19929;-71
2023/06/09 08:04:06;;;;;;;2.78;0.93;;;22.30;61.70;;;;;;7401737;19;19922;-70
2023/06/09 08:06:35;;;;;;;3.28;0.85;;;22.30;61.70;;;;;;7402432;19;19938;-70
2023/06/09 08:09:04;;;;;;;3.05;1.50;;;22.30;61.60;;;;;;7402498;19;19978;-70
2023/06/09 08:11:33;;;;;;;3.08;1.05;;;22.30;61.60;;;;;;7401778;19;19922;-71
2023/06/09 08:14:02;;;;;;;2.80;0.90;;;22.40;61.60;;;;;;7403066;19;20882;-70
2023/06/09 08:16:35;;;;;;;2.38;1.13;;;22.40;61.60;;;;;;7401089;19;19943;-70
2023/06/09 08:19:04;;;;;;;2.70;0.93;;;22.40;61.50;;;;;;7402461;19;19925;-70
2023/06/09 08:21:33;;;;;;;4.10;1.13;;;22.40;61.50;;;;;;7402345;19;19932;-70
2023/06/09 08:24:04;;;;;;;3.45;1.33;;;22.40;61.50;;;;;;7401870;19;19923;-71
2023/06/09 08:26:33;;;;;;;2.42;1.17;;;22.50;61.50;;;;;;7402003;19;19982;-70
2023/06/09 08:29:02;;;;;;;2.28;0.93;;;22.50;61.50;;;;;;7401331;19;19947;-70
2023/06/09 08:31:31;;;;;;;2.25;0.70;;;22.50;61.50;;;;;;7402196;19;19921;-70
2023/06/09 08:34:02;;;;;;;;;;;22.50;61.50;;;;;;7403646;19;19953;-70
2023/06/09 08:36:31;;;;;;;1.88;0.82;;;22.50;61.50;;;;;;7400541;19;19917;-70
2023/06/09 08:39:01;;;;;;;2.35;0.85;;;22.50;61.50;;;;;;7401555;19;19930;-70
2023/06/09 08:41:37;;;;;;;2.53;0.95;;;22.50;61.50;;;;;;7402612;19;19919;-71
2023/06/09 08:44:07;;;;;;;2.58;0.95;;;22.50;61.40;;;;;;7401057;19;20263;-70
2023/06/09 08:46:38;;;;;;;2.83;0.98;;;22.60;61.50;;;;;;7400964;19;19918;-71
2023/06/09 08:49:10;;;;;;;3.33;1.05;;;22.60;61.40;;;;;;7400430;19;19947;-70
2023/06/09 08:51:40;;;;;;;2.88;1.33;;;22.60;61.50;;;;;;7401904;19;19925;-71
2023/06/09 08:54:13;;;;;;;3.13;0.95;;;22.60;61.40;;;;;;7400783;19;19922;-70
2023/06/09 08:56:42;;;;;;;2.15;0.77;;;22.60;61.40;;;;;;7402071;19;20376;-70
2023/06/09 08:59:12;;;;;;;2.92;1.05;;;22.60;61.40;;;;;;7401449;19;19990;-70
2023/06/09 09:01:41;;;;;;;2.55;0.98;;;22.60;61.40;;;;;;7399644;19;19918;-70
2023/06/09 09:04:12;;;;;;;2.38;0.98;;;22.70;61.50;;;;;;7393333;19;19925;-71
2023/06/09 09:06:41;;;;;;;2.13;1.17;;;22.70;61.50;;;;;;7394403;19;19932;-71
2023/06/09 09:09:11;;;;;;;2.42;1.45;;;22.70;61.40;;;;;;7399497;19;20319;-70
2023/06/09 09:11:41;;;;;;;2.40;1.23;;;22.70;61.40;;;;;;7402228;19;20265;-70
2023/06/09 09:14:14;;;;;;;2.55;1.02;;;22.70;61.50;;;;;;7398154;19;19922;-70
2023/06/09 09:16:43;;;;;;;3.17;1.38;;;22.80;61.50;;;;;;7399411;19;19918;-70
2023/06/09 09:19:16;;;;;;;2.72;0.98;;;22.80;61.40;;;;;;7400544;19;19945;-71
2023/06/09 09:21:46;;;;;;;3.22;1.00;;;22.80;61.40;;;;;;7400805;19;19922;-70
2023/06/09 09:24:15;;;;;;;2.60;0.55;;;22.80;61.40;;;;;;7400618;19;20372;-71
2023/06/09 09:26:44;;;;;;;2.75;1.08;;;22.80;61.30;;;;;;7400883;19;19923;-70
2023/06/09 09:29:13;;;;;;;2.08;0.73;;;22.80;61.40;;;;;;7396865;19;19933;-70
2023/06/09 09:31:42;;;;;;;1.83;0.70;;;22.90;61.40;;;;;;7399313;19;19982;-70
2023/06/09 09:34:16;;;;;;;3.13;0.98;;;22.90;61.40;;;;;;7401349;19;19933;-70
2023/06/09 09:36:45;;;;;;;2.33;1.05;;;22.90;61.30;;;;;;7395391;19;19948;-70
2023/06/09 09:39:15;;;;;;;2.58;1.00;;;22.90;61.30;;;;;;7399986;19;19926;-70
2023/06/09 09:42:03;;;;;;;;;;;23.00;61.30;;;;;;7404127;19;19930;-70
2023/06/09 09:44:38;;;;;;;2.33;1.02;;;23.00;61.30;;;;;;7396420;19;19922;-70
2023/06/09 09:47:09;;;;;;;3.03;1.08;;;23.00;61.30;;;;;;7400656;19;20264;-70
2023/06/09 09:49:51;;;;;;;1.95;0.73;;;23.10;61.20;;;;;;7402632;19;19915;-70
2023/06/09 09:52:27;;;;;;;2.42;1.00;;;23.10;61.30;;;;;;7407219;19;19918;-71
2023/06/09 09:54:57;;;;;;;3.03;0.93;;;23.10;61.20;;;;;;7407078;19;19922;-70
2023/06/09 09:57:31;;;;;;;3.17;0.80;;;23.10;61.10;;;;;;7405501;19;20389;-70
2023/06/09 10:00:00;;;;;;;2.50;0.93;;;23.20;61.20;;;;;;7405234;19;19919;-70
2023/06/09 10:02:32;;;;;;;2.83;0.90;;;23.20;61.10;;;;;;7405297;19;20284;-71
2023/06/09 10:05:05;;;;;;;2.53;0.93;;;23.20;61.10;;;;;;7406478;19;19982;-70
2023/06/09 10:07:40;;;;;;;2.33;1.15;;;23.30;61.20;;;;;;7405191;19;20380;-70
2023/06/09 10:10:20;;;;;;;2.38;0.63;;;23.30;61.10;;;;;;7403925;19;19926;-70
2023/06/09 10:12:52;;;;;;;1.95;0.70;;;23.30;61.00;;;;;;7404970;19;19929;-70
2023/06/09 10:15:26;;;;;;;4.25;1.77;;;23.30;61.10;;;;;;7406356;19;19914;-70
2023/06/09 10:17:58;;;;;;;2.28;0.82;;;23.40;61.10;;;;;;7406405;19;20328;-71
2023/06/09 10:20:30;;;;;;;2.90;0.88;;;23.40;61.00;;;;;;7407087;19;19969;-70
2023/06/09 10:23:00;;;;;;;2.80;0.90;;;23.40;61.00;;;;;;7404787;19;19922;-70
2023/06/09 10:25:29;;;;;;;;;;;23.40;60.90;;;;;;7407013;19;19918;-70
2023/06/09 10:27:58;;;;;;;1.80;0.68;;;23.50;61.00;;;;;;7406772;19;20404;-70
2023/06/09 10:30:27;;;;;;;2.10;1.02;;;23.50;60.90;;;;;;7405668;19;20014;-70
2023/06/09 10:32:58;;;;;;;;;;;23.50;60.90;;;;;;7402806;19;19928;-70
2023/06/09 10:35:32;;;;;;;2.17;0.93;;;23.50;60.90;;;;;;7405185;19;20691;-72
2023/06/09 10:38:55;;;;;;;2.50;0.77;;;23.60;60.90;;;;;;7418996;19;19914;-73
2023/06/09 10:41:36;;;;;;;3.17;0.93;;;23.60;60.90;;;;;;7399189;19;20384;-69
2023/06/09 10:44:19;;;;;;;2.90;0.95;;;23.70;60.90;;;;;;7401649;19;19936;-70
2023/06/09 10:46:50;;;;;;;3.08;0.90;;;23.70;61.00;;;;;;7403422;19;19926;-70
2023/06/09 10:49:42;;;;;;;2.92;0.90;;;23.70;60.90;;;;;;7403440;19;19927;-70
2023/06/09 10:52:49;;;;;;;4.55;1.30;;;23.70;60.90;;;;;;7405204;19;19943;-71
2023/06/09 10:55:21;;;;;;;5.50;1.73;;;23.80;61.00;;;;;;7405659;19;19928;-72
2023/06/09 10:57:50;;;;;;;3.65;1.38;;;23.90;61.00;;;;;;7404236;19;19982;-71
2023/06/09 11:00:20;;;;;;;4.28;1.30;;;23.90;61.00;;;;;;7403187;19;20251;-70
2023/06/09 11:02:51;;;;;;;3.22;1.13;;;23.90;61.00;;;;;;7405134;19;19922;-70
2023/06/09 11:05:21;;;;;;;2.10;1.08;;;23.90;61.00;;;;;;7406506;19;19990;-70
2023/06/09 11:07:55;;;;;;;4.32;1.55;;;23.90;61.00;;;;;;7402755;19;19946;-71
2023/06/09 11:10:29;;;;;;;3.55;1.10;;;24.00;61.00;;;;;;7405138;19;19930;-71
2023/06/09 11:12:59;;;;;;;2.70;1.40;;;24.00;61.00;;;;;;7404423;19;19948;-71
2023/06/09 11:16:03;;;;;;;3.60;0.82;;;24.00;61.00;;;;;;7401962;19;19918;-70
2023/06/09 11:18:33;;;;;;;3.95;1.20;;;24.00;60.90;;;;;;7401589;19;20035;-71
2023/06/09 11:21:16;;;;;;;;;;;24.10;61.20;;;;;;7404425;19;19993;-72
2023/06/09 11:24:05;;;;;;;7.85;2.38;;;24.10;61.30;;;;;;7399282;19;20015;-72
2023/06/09 11:26:37;;;;;;;4.00;1.73;;;24.10;61.50;;;;;;7392795;19;19919;-70
2023/06/09 11:29:24;;;;;;;5.18;2.05;;;24.10;61.40;;;;;;7399015;19;19918;-71
2023/06/09 11:31:54;;;;;;;4.88;1.63;;;24.10;61.30;;;;;;7403460;19;19950;-71
2023/06/09 11:34:55;;;;;;;3.92;2.03;;;24.20;61.40;;;;;;7393848;19;19945;-62
2023/06/09 11:37:31;;;;;;;7.53;1.88;;;24.20;61.40;;;;;;7404135;19;19936;-61
2023/06/09 11:40:05;;;;;;;3.65;1.35;;;24.20;61.40;;;;;;7405065;19;19951;-61
2023/06/09 11:42:35;;;;;;;4.90;1.73;;;24.30;61.40;;;;;;7405588;19;19923;-61
2023/06/09 11:45:07;;;;;;;4.50;1.80;;;24.30;61.40;;;;;;7400071;19;19922;-61
2023/06/09 11:47:38;;;;;;;4.70;1.80;;;24.30;62.00;;;;;;7400870;19;19939;-61
2023/06/09 11:50:11;;;;;;;4.63;1.75;;;24.40;61.40;;;;;;7403226;19;19922;-62
2023/06/09 11:52:42;;;;;;;5.32;1.60;;;24.40;61.40;;;;;;7403726;19;19927;-62
2023/06/09 11:55:16;;;;;;;4.82;1.70;;;24.40;61.30;;;;;;7402407;19;19927;-61
2023/06/09 11:57:45;;;;;;;4.07;1.67;;;24.40;61.30;;;;;;7403508;19;19974;-61
2023/06/09 12:00:18;;;;;;;3.80;1.88;;;24.50;61.30;;;;;;7403861;19;19923;-61
2023/06/09 12:02:51;;;;;;;4.43;1.75;;;24.40;61.20;;;;;;7399412;19;19927;-62
2023/06/09 12:05:26;;;;;;;3.45;1.58;;;24.50;61.20;;;;;;7403782;19;19922;-61
2023/06/09 12:07:58;;;;;;;3.63;1.92;;;24.50;61.20;;;;;;7402472;19;20267;-61
2023/06/09 12:10:36;;;;;;;3.72;1.63;;;24.60;61.20;;;;;;7404429;19;19930;-62
2023/06/09 12:13:14;;;;;;;3.95;2.05;;;24.60;61.10;;;;;;7397236;19;19922;-61
2023/06/09 12:15:46;;;;;;;5.47;1.95;;;24.60;61.10;;;;;;7401049;19;20324;-62
2023/06/09 12:18:16;;;;;;;4.20;1.52;;;24.70;61.10;;;;;;7400856;19;19925;-62
2023/06/09 12:20:50;;;;;;;3.55;1.58;;;24.70;61.10;;;;;;7402622;19;20273;-61
2023/06/09 12:23:20;;;;;;;3.53;1.58;;;24.70;61.00;;;;;;7402014;19;19946;-62
2023/06/09 12:25:53;;;;;;;3.35;1.33;;;24.70;61.00;;;;;;7401077;19;19926;-61
2023/06/09 12:28:26;;;;;;;3.75;1.65;;;24.70;60.90;;;;;;7404156;19;19958;-60
2023/06/09 12:30:56;;;;;;;3.75;1.40;;;24.80;60.90;;;;;;7400404;19;19918;-62
2023/06/09 12:33:29;;;;;;;2.85;1.42;;;24.80;60.90;;;;;;7401277;19;19923;-62
2023/06/09 12:36:07;;;;;;;4.50;2.35;;;24.80;61.00;;;;;;7391171;19;20154;-62
2023/06/09 12:38:42;;;;;;;3.53;1.95;;;24.80;61.00;;;;;;7400566;19;20352;-61
2023/06/09 12:41:15;;;;;;;5.35;2.00;;;24.80;60.90;;;;;;7400670;19;19921;-62
2023/06/09 12:43:48;;;;;;;4.18;1.58;;;24.90;60.90;;;;;;7399548;19;20329;-61
2023/06/09 12:46:21;;;;;;;6.25;1.98;;;24.90;60.90;;;;;;7399905;19;19922;-61
2023/06/09 12:49:01;;;;;;;3.45;2.00;;;24.90;61.00;;;;;;7395293;19;19927;-61
2023/06/09 12:51:31;;;;;;;3.40;1.50;;;24.90;60.90;;;;;;7398832;19;19936;-60
2023/06/09 12:54:02;;;;;;;4.50;2.00;;;24.90;61.20;;;;;;7400458;19;19922;-59
2023/06/09 12:56:34;;;;;;;5.15;2.15;;;25.00;61.10;;;;;;7397766;19;19919;-61
2023/06/09 12:59:03;;;;;;;6.82;1.80;;;24.90;61.20;;;;;;7396022;19;20638;-60
2023/06/09 13:01:33;;;;;;;6.30;2.28;;;24.90;61.20;;;;;;7399509;19;19919;-60
2023/06/09 13:04:02;;;;;;;;;;;25.00;61.30;;;;;;7402664;19;19944;-60
2023/06/09 13:06:31;;;;;;;5.20;1.80;;;25.00;61.30;;;;;;7400877;19;19928;-60
2023/06/09 13:09:01;;;;;;;5.43;2.25;;;25.00;61.30;;;;;;7392972;19;20039;-60
2023/06/09 13:11:32;;;;;;;7.60;2.15;;;25.00;61.40;;;;;;7399949;19;20328;-60
2023/06/09 13:14:05;;;;;;;3.28;1.83;;;25.10;61.50;;;;;;7400302;19;19923;-60
2023/06/09 13:16:34;;;;;;;4.22;1.95;;;25.10;61.40;;;;;;7401677;19;20348;-61
2023/06/09 13:19:03;;;;;;;5.82;2.30;;;25.10;61.40;;;;;;7403695;19;20359;-60